Time,TemperatureF,DewpointF,PressureIn,WindDirection,WindDirectionDegrees,WindSpeedMPH,WindSpeedGustMPH,Humidity,HourlyPrecipIn,Conditions,Clouds,dailyrainin,SoftwareType,DateUTC
2013-10-31 00:04:00,33.6,24.1,30.07,SSE,157,0.0,0.0,68,0.00,,,0.00,WUHU21623XXSP,2013-10-31 07:04:00,
2013-10-31 00:10:00,33.4,24.3,30.08,ESE,112,0.0,0.0,69,0.00,,,0.00,WUHU21623XXSP,2013-10-31 07:10:00,
2013-10-31 00:15:00,33.1,24.0,30.08,East,90,0.0,0.0,69,0.00,,,0.00,WUHU21623XXSP,2013-10-31 07:15:00,
2013-10-31 00:27:00,32.5,23.8,30.07,East,90,0.0,0.0,70,0.00,,,0.00,WUHU21623XXSP,2013-10-31 07:27:00,
2013-10-31 00:32:00,32.4,23.8,30.08,East,90,0.0,0.0,70,0.00,,,0.00,WUHU21623XXSP,2013-10-31 07:32:00,
2013-10-31 00:37:00,32.2,23.5,30.08,ENE,67,0.0,0.0,70,0.00,,,0.00,WUHU21623XXSP,2013-10-31 07:37:00,
2013-10-31 00:42:00,32.0,23.4,30.08,ENE,67,0.0,0.0,70,0.00,,,0.00,WUHU21623XXSP,2013-10-31 07:42:00,
2013-10-31 00:47:00,31.8,23.2,30.08,ESE,112,0.0,0.0,70,0.00,,,0.00,WUHU21623XXSP,2013-10-31 07:47:00,
2013-10-31 00:55:00,31.6,23.0,30.08,WNW,292,0.0,0.0,70,0.00,,,0.00,WUHU21623XXSP,2013-10-31 07:55:00,
2013-10-31 01:00:00,31.6,23.0,30.08,WNW,292,0.0,0.0,70,0.00,,,0.00,WUHU21623XXSP,2013-10-31 08:00:00,
2013-10-31 01:05:00,31.3,23.0,30.08,ESE,112,0.0,0.0,71,0.00,,,0.00,WUHU21623XXSP,2013-10-31 08:05:00,
2013-10-31 01:10:00,31.3,23.0,30.08,ENE,67,0.0,0.0,71,0.00,,,0.00,WUHU21623XXSP,2013-10-31 08:10:00,
2013-10-31 01:15:00,31.1,22.8,30.09,ENE,67,0.0,0.0,71,0.00,,,0.00,WUHU21623XXSP,2013-10-31 08:15:00,
2013-10-31 01:20:00,30.9,22.6,30.08,ENE,67,0.0,0.0,71,0.00,,,0.00,WUHU21623XXSP,2013-10-31 08:20:00,
2013-10-31 01:25:00,30.7,22.4,30.08,SSE,157,0.0,0.0,71,0.00,,,0.00,WUHU21623XXSP,2013-10-31 08:25:00,
2013-10-31 01:30:00,30.7,22.4,30.08,SW,225,0.0,0.0,71,0.00,,,0.00,WUHU21623XXSP,2013-10-31 08:30:00,
2013-10-31 01:35:00,30.6,22.2,30.09,SSE,157,0.0,0.0,71,0.00,,,0.00,WUHU21623XXSP,2013-10-31 08:35:00,
2013-10-31 01:40:00,30.4,22.1,30.09,South,180,0.0,0.0,71,0.00,,,0.00,WUHU21623XXSP,2013-10-31 08:40:00,
2013-10-31 01:51:00,30.0,22.0,30.09,SSE,157,0.0,0.0,72,0.00,,,0.00,WUHU21623XXSP,2013-10-31 08:51:00,
2013-10-31 01:55:00,30.0,22.0,30.09,SSE,157,0.0,0.0,72,0.00,,,0.00,WUHU21623XXSP,2013-10-31 08:55:00,
2013-10-31 02:00:00,30.0,21.7,30.09,ENE,67,0.0,0.0,72,0.00,,,0.00,WUHU21623XXSP,2013-10-31 09:00:00,
2013-10-31 02:06:00,29.7,21.7,30.09,NE,45,0.0,0.0,72,0.00,,,0.00,WUHU21623XXSP,2013-10-31 09:06:00,
2013-10-31 02:11:00,29.5,21.7,30.08,East,90,0.0,0.0,72,0.00,,,0.00,WUHU21623XXSP,2013-10-31 09:11:00,
2013-10-31 02:16:00,29.3,21.4,30.09,ESE,112,0.0,0.0,72,0.00,,,0.00,WUHU21623XXSP,2013-10-31 09:16:00,
2013-10-31 02:21:00,29.1,21.2,30.09,East,90,0.0,0.0,72,0.00,,,0.00,WUHU21623XXSP,2013-10-31 09:21:00,
2013-10-31 02:27:00,29.1,21.2,30.09,NE,45,0.0,0.0,72,0.00,,,0.00,WUHU21623XXSP,2013-10-31 09:27:00,
2013-10-31 02:36:00,28.9,21.3,30.09,East,90,0.0,0.0,73,0.00,,,0.00,WUHU21623XXSP,2013-10-31 09:36:00,
2013-10-31 02:42:00,28.8,21.2,30.10,SSE,157,0.0,0.0,73,0.00,,,0.00,WUHU21623XXSP,2013-10-31 09:42:00,
2013-10-31 02:47:00,28.8,21.2,30.09,South,180,0.0,0.0,73,0.00,,,0.00,WUHU21623XXSP,2013-10-31 09:47:00,
2013-10-31 02:52:00,28.6,21.0,30.09,South,180,0.0,0.0,73,0.00,,,0.00,WUHU21623XXSP,2013-10-31 09:52:00,
2013-10-31 02:57:00,28.6,21.0,30.10,ENE,67,0.0,0.0,73,0.00,,,0.00,WUHU21623XXSP,2013-10-31 09:57:00,
2013-10-31 03:02:00,28.6,21.0,30.10,ENE,67,0.0,0.0,73,0.00,,,0.00,WUHU21623XXSP,2013-10-31 10:02:00,
2013-10-31 03:10:00,28.2,20.7,30.09,NE,45,0.0,0.0,73,0.00,,,0.00,WUHU21623XXSP,2013-10-31 10:10:00,
2013-10-31 03:15:00,28.2,20.7,30.09,NE,45,0.0,0.0,73,0.00,,,0.00,WUHU21623XXSP,2013-10-31 10:15:00,
2013-10-31 03:23:00,28.0,20.5,30.09,East,90,0.0,0.0,73,0.00,,,0.00,WUHU21623XXSP,2013-10-31 10:23:00,
2013-10-31 03:29:00,28.0,20.5,30.09,South,180,0.0,0.0,73,0.00,,,0.00,WUHU21623XXSP,2013-10-31 10:29:00,
2013-10-31 03:34:00,28.0,20.5,30.09,SSW,202,0.0,0.0,73,0.00,,,0.00,WUHU21623XXSP,2013-10-31 10:34:00,
2013-10-31 03:39:00,27.7,20.4,30.09,SSW,202,1.3,1.3,74,0.00,,,0.00,WUHU21623XXSP,2013-10-31 10:39:00,
2013-10-31 03:44:00,27.7,20.4,30.09,SSW,202,0.0,1.3,74,0.00,,,0.00,WUHU21623XXSP,2013-10-31 10:44:00,
2013-10-31 03:49:00,27.7,20.4,30.09,SSW,202,0.0,0.0,74,0.00,,,0.00,WUHU21623XXSP,2013-10-31 10:49:00,
2013-10-31 03:54:00,27.5,20.3,30.09,NNE,22,0.0,0.0,74,0.00,,,0.00,WUHU21623XXSP,2013-10-31 10:54:00,
2013-10-31 03:59:00,27.3,20.1,30.09,NE,45,0.0,0.0,74,0.00,,,0.00,WUHU21623XXSP,2013-10-31 10:59:00,
2013-10-31 04:04:00,27.3,20.1,30.09,NE,45,0.0,0.0,74,0.00,,,0.00,WUHU21623XXSP,2013-10-31 11:04:00,
2013-10-31 04:09:00,27.1,19.9,30.09,ESE,112,0.0,0.0,74,0.00,,,0.00,WUHU21623XXSP,2013-10-31 11:09:00,
2013-10-31 04:14:00,27.1,19.9,30.09,SW,225,0.0,0.0,74,0.00,,,0.00,WUHU21623XXSP,2013-10-31 11:14:00,
2013-10-31 04:23:00,27.0,19.7,30.09,SE,135,0.0,0.0,74,0.00,,,0.00,WUHU21623XXSP,2013-10-31 11:23:00,
2013-10-31 04:28:00,26.8,19.5,30.09,SE,135,0.0,0.0,74,0.00,,,0.00,WUHU21623XXSP,2013-10-31 11:28:00,
2013-10-31 04:35:00,26.6,19.4,30.09,SE,135,0.0,0.0,74,0.00,,,0.00,WUHU21623XXSP,2013-10-31 11:35:00,
2013-10-31 04:40:00,26.4,19.4,30.09,SE,135,0.0,0.0,74,0.00,,,0.00,WUHU21623XXSP,2013-10-31 11:40:00,
2013-10-31 04:46:00,26.4,19.2,30.09,South,180,0.0,0.0,75,0.00,,,0.00,WUHU21623XXSP,2013-10-31 11:46:00,
2013-10-31 04:51:00,26.2,19.2,30.09,South,180,0.0,0.0,75,0.00,,,0.00,WUHU21623XXSP,2013-10-31 11:51:00,
2013-10-31 04:56:00,26.2,19.3,30.09,South,180,1.1,1.1,75,0.00,,,0.00,WUHU21623XXSP,2013-10-31 11:56:00,
2013-10-31 05:01:00,26.1,19.1,30.09,SSW,202,0.0,1.1,75,0.00,,,0.00,WUHU21623XXSP,2013-10-31 12:01:00,
2013-10-31 05:06:00,26.1,19.1,30.10,SSW,202,0.0,1.1,75,0.00,,,0.00,WUHU21623XXSP,2013-10-31 12:06:00,
2013-10-31 05:11:00,26.1,19.1,30.10,East,90,0.0,0.0,75,0.00,,,0.00,WUHU21623XXSP,2013-10-31 12:11:00,
2013-10-31 05:16:00,25.9,19.3,30.11,NE,45,0.0,0.0,76,0.00,,,0.00,WUHU21623XXSP,2013-10-31 12:16:00,
2013-10-31 05:21:00,25.9,19.3,30.11,NE,45,0.0,0.0,76,0.00,,,0.00,WUHU21623XXSP,2013-10-31 12:21:00,
2013-10-31 05:31:00,25.7,19.1,30.11,NE,45,0.0,0.0,76,0.00,,,0.00,WUHU21623XXSP,2013-10-31 12:31:00,
2013-10-31 05:38:00,25.5,18.9,30.11,NE,45,0.0,0.0,76,0.00,,,0.00,WUHU21623XXSP,2013-10-31 12:38:00,
2013-10-31 05:43:00,25.5,18.9,30.11,NE,45,0.0,0.0,76,0.00,,,0.00,WUHU21623XXSP,2013-10-31 12:43:00,
2013-10-31 05:48:00,25.5,18.9,30.11,ENE,67,0.0,0.0,76,0.00,,,0.00,WUHU21623XXSP,2013-10-31 12:48:00,
2013-10-31 05:53:00,25.3,18.8,30.11,SSE,157,0.0,0.0,76,0.00,,,0.00,WUHU21623XXSP,2013-10-31 12:53:00,
2013-10-31 05:58:00,25.3,18.8,30.11,ESE,112,0.0,0.0,76,0.00,,,0.00,WUHU21623XXSP,2013-10-31 12:58:00,
2013-10-31 06:03:00,25.2,18.6,30.11,SSE,157,0.0,0.0,76,0.00,,,0.00,WUHU21623XXSP,2013-10-31 13:03:00,
2013-10-31 06:08:00,25.2,18.6,30.12,SSE,157,0.0,0.0,76,0.00,,,0.00,WUHU21623XXSP,2013-10-31 13:08:00,
2013-10-31 06:13:00,25.0,18.4,30.12,East,90,0.0,0.0,76,0.00,,,0.00,WUHU21623XXSP,2013-10-31 13:13:00,
2013-10-31 06:18:00,25.0,18.4,30.12,NE,45,0.0,0.0,76,0.00,,,0.00,WUHU21623XXSP,2013-10-31 13:18:00,
2013-10-31 06:23:00,25.0,18.4,30.12,ENE,67,0.0,0.0,76,0.00,,,0.00,WUHU21623XXSP,2013-10-31 13:23:00,
2013-10-31 06:31:00,24.6,18.1,30.12,ENE,67,0.0,0.0,76,0.00,,,0.00,WUHU21623XXSP,2013-10-31 13:31:00,
2013-10-31 06:36:00,24.6,18.1,30.13,ENE,67,0.0,0.0,76,0.00,,,0.00,WUHU21623XXSP,2013-10-31 13:36:00,
2013-10-31 06:41:00,24.6,18.1,30.12,ENE,67,0.0,0.0,76,0.00,,,0.00,WUHU21623XXSP,2013-10-31 13:41:00,
2013-10-31 06:46:00,24.6,18.1,30.12,ENE,67,0.0,0.0,76,0.00,,,0.00,WUHU21623XXSP,2013-10-31 13:46:00,
2013-10-31 06:51:00,24.6,18.1,30.12,ENE,67,0.0,0.0,76,0.00,,,0.00,WUHU21623XXSP,2013-10-31 13:51:00,
2013-10-31 06:57:00,24.4,17.9,30.12,ENE,67,0.0,0.0,76,0.00,,,0.00,WUHU21623XXSP,2013-10-31 13:57:00,
2013-10-31 07:02:00,24.4,17.9,30.12,ENE,67,0.0,0.0,76,0.00,,,0.00,WUHU21623XXSP,2013-10-31 14:02:00,
2013-10-31 07:12:00,24.1,17.6,30.12,South,180,0.0,0.0,76,0.00,,,0.00,WUHU21623XXSP,2013-10-31 14:12:00,
2013-10-31 07:17:00,24.1,17.6,30.12,SSW,202,0.0,0.0,76,0.00,,,0.00,WUHU21623XXSP,2013-10-31 14:17:00,
2013-10-31 07:25:00,24.1,17.6,30.12,SSW,202,0.0,0.0,76,0.00,,,0.00,WUHU21623XXSP,2013-10-31 14:25:00,
2013-10-31 07:30:00,23.9,17.4,30.12,SSW,202,0.0,0.0,76,0.00,,,0.00,WUHU21623XXSP,2013-10-31 14:30:00,
2013-10-31 07:37:00,23.7,17.2,30.12,SSW,202,0.0,0.0,76,0.00,,,0.00,WUHU21623XXSP,2013-10-31 14:37:00,
2013-10-31 07:43:00,23.5,17.1,30.12,SSW,202,0.0,0.0,76,0.00,,,0.00,WUHU21623XXSP,2013-10-31 14:43:00,
2013-10-31 07:48:00,23.5,17.1,30.13,SSW,202,0.0,0.0,76,0.00,,,0.00,WUHU21623XXSP,2013-10-31 14:48:00,
2013-10-31 07:53:00,23.5,17.1,30.13,SSW,202,0.0,0.0,76,0.00,,,0.00,WUHU21623XXSP,2013-10-31 14:53:00,
2013-10-31 07:58:00,23.4,17.4,30.13,SSW,202,0.0,0.0,77,0.00,,,0.00,WUHU21623XXSP,2013-10-31 14:58:00,
2013-10-31 08:10:00,23.5,17.4,30.13,SSW,202,0.0,0.0,77,0.00,,,0.00,WUHU21623XXSP,2013-10-31 15:10:00,
2013-10-31 08:16:00,23.5,17.7,30.14,SSW,202,0.0,0.0,78,0.00,,,0.00,WUHU21623XXSP,2013-10-31 15:16:00,
2013-10-31 08:21:00,23.7,17.9,30.13,SSW,202,0.0,0.0,78,0.00,,,0.00,WUHU21623XXSP,2013-10-31 15:21:00,
2013-10-31 08:26:00,23.9,18.0,30.14,SSW,202,0.0,0.0,78,0.00,,,0.00,WUHU21623XXSP,2013-10-31 15:26:00,
2013-10-31 08:31:00,24.4,18.6,30.14,WSW,247,0.0,0.0,78,0.00,,,0.00,WUHU21623XXSP,2013-10-31 15:31:00,
2013-10-31 08:36:00,24.6,19.1,30.14,NNW,337,0.0,0.0,79,0.00,,,0.00,WUHU21623XXSP,2013-10-31 15:36:00,
2013-10-31 08:41:00,25.2,19.9,30.14,North,0,0.0,0.0,80,0.00,,,0.00,WUHU21623XXSP,2013-10-31 15:41:00,
2013-10-31 08:46:00,25.9,20.6,30.13,WNW,292,0.0,0.0,80,0.00,,,0.00,WUHU21623XXSP,2013-10-31 15:46:00,
2013-10-31 08:51:00,27.0,22.1,30.14,South,180,0.0,0.0,82,0.00,,,0.00,WUHU21623XXSP,2013-10-31 15:51:00,
2013-10-31 08:56:00,27.7,22.9,30.14,South,180,0.0,0.0,82,0.00,,,0.00,WUHU21623XXSP,2013-10-31 15:56:00,
2013-10-31 09:01:00,28.6,23.8,30.14,SSE,157,0.0,0.0,82,0.00,,,0.00,WUHU21623XXSP,2013-10-31 16:01:00,
2013-10-31 09:06:00,29.1,24.3,30.14,SSE,157,0.0,0.0,82,0.00,,,0.00,WUHU21623XXSP,2013-10-31 16:06:00,
2013-10-31 09:12:00,30.6,26.0,30.14,SSE,157,0.0,0.0,83,0.00,,,0.00,WUHU21623XXSP,2013-10-31 16:12:00,
2013-10-31 09:17:00,31.6,26.7,30.14,SSE,157,0.0,0.0,84,0.00,,,0.00,WUHU21623XXSP,2013-10-31 16:17:00,
2013-10-31 09:22:00,33.8,29.2,30.14,SE,135,0.0,0.0,85,0.00,,,0.00,WUHU21623XXSP,2013-10-31 16:22:00,
2013-10-31 09:28:00,34.3,29.7,30.14,SE,135,0.0,0.0,84,0.00,,,0.00,WUHU21623XXSP,2013-10-31 16:28:00,
2013-10-31 09:33:00,36.0,31.0,30.14,SSE,157,0.0,0.0,84,0.00,,,0.00,WUHU21623XXSP,2013-10-31 16:33:00,
2013-10-31 09:38:00,37.4,32.2,30.14,SSE,157,0.0,0.0,82,0.00,,,0.00,WUHU21623XXSP,2013-10-31 16:38:00,
2013-10-31 09:43:00,38.1,32.2,30.14,SSE,157,0.0,0.0,80,0.00,,,0.00,WUHU21623XXSP,2013-10-31 16:43:00,
2013-10-31 09:52:00,39.4,33.1,30.14,SSE,157,0.0,0.0,78,0.00,,,0.00,WUHU21623XXSP,2013-10-31 16:52:00,
2013-10-31 09:59:00,40.1,33.4,30.14,SW,225,0.0,0.0,77,0.00,,,0.00,WUHU21623XXSP,2013-10-31 16:59:00,
2013-10-31 10:05:00,40.8,33.8,30.14,NNW,337,0.0,0.0,76,0.00,,,0.00,WUHU21623XXSP,2013-10-31 17:05:00,
2013-10-31 10:14:00,41.5,33.5,30.14,SSW,202,0.0,0.0,73,0.00,,,0.00,WUHU21623XXSP,2013-10-31 17:14:00,
2013-10-31 10:20:00,42.1,34.1,30.14,SSE,157,0.0,0.0,73,0.00,,,0.00,WUHU21623XXSP,2013-10-31 17:20:00,
2013-10-31 10:25:00,42.4,34.1,30.14,SSE,157,0.0,0.0,72,0.00,,,0.00,WUHU21623XXSP,2013-10-31 17:25:00,
2013-10-31 10:30:00,42.6,34.3,30.14,SW,225,0.0,0.0,72,0.00,,,0.00,WUHU21623XXSP,2013-10-31 17:30:00,
2013-10-31 10:35:00,43.2,34.4,30.14,SSW,202,0.0,0.0,71,0.00,,,0.00,WUHU21623XXSP,2013-10-31 17:35:00,
2013-10-31 10:40:00,43.3,34.3,30.14,South,180,1.3,1.3,70,0.00,,,0.00,WUHU21623XXSP,2013-10-31 17:40:00,
2013-10-31 10:46:00,43.9,34.4,30.14,SSE,157,0.0,1.3,69,0.00,,,0.00,WUHU21623XXSP,2013-10-31 17:46:00,
2013-10-31 10:52:00,44.2,34.3,30.14,WNW,292,0.0,0.0,68,0.00,,,0.00,WUHU21623XXSP,2013-10-31 17:52:00,
2013-10-31 10:57:00,44.4,34.1,30.14,WSW,247,0.0,0.0,67,0.00,,,0.00,WUHU21623XXSP,2013-10-31 17:57:00,
2013-10-31 11:02:00,44.8,34.8,30.14,ESE,112,0.0,0.0,68,0.00,,,0.00,WUHU21623XXSP,2013-10-31 18:02:00,
2013-10-31 11:07:00,45.1,34.8,30.14,ESE,112,1.3,1.3,67,0.00,,,0.00,WUHU21623XXSP,2013-10-31 18:07:00,
2013-10-31 11:12:00,45.5,34.8,30.14,SE,135,0.0,1.3,66,0.00,,,0.00,WUHU21623XXSP,2013-10-31 18:12:00,
2013-10-31 11:17:00,45.7,34.9,30.14,NW,315,0.0,0.0,66,0.00,,,0.00,WUHU21623XXSP,2013-10-31 18:17:00,
2013-10-31 11:22:00,46.0,34.9,30.14,North,0,0.0,0.0,65,0.00,,,0.00,WUHU21623XXSP,2013-10-31 18:22:00,
2013-10-31 11:27:00,46.6,35.1,30.14,NNE,22,0.9,0.9,65,0.00,,,0.00,WUHU21623XXSP,2013-10-31 18:27:00,
2013-10-31 11:32:00,46.9,35.3,30.14,SW,225,1.8,1.8,64,0.00,,,0.00,WUHU21623XXSP,2013-10-31 18:32:00,
2013-10-31 11:37:00,48.0,35.8,30.14,North,0,0.0,1.8,63,0.00,,,0.00,WUHU21623XXSP,2013-10-31 18:37:00,
2013-10-31 11:42:00,48.4,36.4,30.13,NNE,22,0.0,0.0,63,0.00,,,0.00,WUHU21623XXSP,2013-10-31 18:42:00,
2013-10-31 11:47:00,49.1,37.0,30.13,NW,315,2.0,2.0,63,0.00,,,0.00,WUHU21623XXSP,2013-10-31 18:47:00,
2013-10-31 11:52:00,50.4,37.8,30.13,West,270,0.0,2.0,62,0.00,,,0.00,WUHU21623XXSP,2013-10-31 18:52:00,
2013-10-31 12:01:00,52.2,37.7,30.13,WSW,247,2.7,2.7,58,0.00,,,0.00,WUHU21623XXSP,2013-10-31 19:01:00,
2013-10-31 12:06:00,52.9,38.4,30.13,NW,315,0.0,2.7,58,0.00,,,0.00,WUHU21623XXSP,2013-10-31 19:06:00,
2013-10-31 12:11:00,53.8,38.9,30.13,North,0,0.0,0.0,57,0.00,,,0.00,WUHU21623XXSP,2013-10-31 19:11:00,
2013-10-31 12:16:00,54.5,38.6,30.12,SSE,157,0.0,0.0,55,0.00,,,0.00,WUHU21623XXSP,2013-10-31 19:16:00,
2013-10-31 12:21:00,55.2,39.2,30.12,WNW,292,1.6,1.6,55,0.00,,,0.00,WUHU21623XXSP,2013-10-31 19:21:00,
2013-10-31 12:26:00,55.6,38.6,30.12,NNW,337,2.2,2.2,52,0.00,,,0.00,WUHU21623XXSP,2013-10-31 19:26:00,
2013-10-31 12:35:00,56.5,39.1,30.12,NNW,337,0.0,0.0,52,0.00,,,0.00,WUHU21623XXSP,2013-10-31 19:35:00,
2013-10-31 12:42:00,57.0,38.1,30.12,West,270,0.0,0.0,49,0.00,,,0.00,WUHU21623XXSP,2013-10-31 19:42:00,
2013-10-31 12:47:00,57.4,37.9,30.12,WNW,292,3.4,3.4,48,0.00,,,0.00,WUHU21623XXSP,2013-10-31 19:47:00,
2013-10-31 12:52:00,57.7,38.2,30.12,North,0,2.2,3.4,48,0.00,,,0.00,WUHU21623XXSP,2013-10-31 19:52:00,
2013-10-31 12:53:00,57.7,38.2,30.12,North,0,2.2,3.4,48,0.00,,,0.00,WUHU21623XXSP,2013-10-31 19:53:00,
2013-10-31 13:03:00,59.0,38.2,30.11,WNW,292,1.6,1.6,46,0.00,,,0.00,WUHU21623XXSP,2013-10-31 20:03:00,
2013-10-31 13:09:00,59.5,38.1,30.11,WNW,292,2.9,2.9,45,0.00,,,0.00,WUHU21623XXSP,2013-10-31 20:09:00,
2013-10-31 13:14:00,59.7,37.7,30.11,NNE,22,0.0,2.9,44,0.00,,,0.00,WUHU21623XXSP,2013-10-31 20:14:00,
2013-10-31 13:22:00,59.7,36.5,30.11,NW,315,4.9,4.9,42,0.00,,,0.00,WUHU21623XXSP,2013-10-31 20:22:00,
2013-10-31 13:27:00,59.7,35.3,30.10,NNW,337,1.6,4.9,40,0.00,,,0.00,WUHU21623XXSP,2013-10-31 20:27:00,
2013-10-31 13:32:00,59.7,35.3,30.10,North,0,4.3,4.3,40,0.00,,,0.00,WUHU21623XXSP,2013-10-31 20:32:00,
2013-10-31 13:37:00,59.5,34.5,30.10,NW,315,2.9,4.3,39,0.00,,,0.00,WUHU21623XXSP,2013-10-31 20:37:00,
2013-10-31 13:42:00,59.7,33.9,30.10,West,270,3.6,4.5,38,0.00,,,0.00,WUHU21623XXSP,2013-10-31 20:42:00,
2013-10-31 13:47:00,59.7,33.2,30.09,WNW,292,1.3,4.5,37,0.00,,,0.00,WUHU21623XXSP,2013-10-31 20:47:00,
2013-10-31 13:52:00,59.9,32.7,30.09,North,0,5.8,5.8,36,0.00,,,0.00,WUHU21623XXSP,2013-10-31 20:52:00,
2013-10-31 13:57:00,60.1,32.1,30.09,West,270,2.5,5.8,35,0.00,,,0.00,WUHU21623XXSP,2013-10-31 20:57:00,
2013-10-31 14:02:00,60.1,32.1,30.09,North,0,4.3,4.3,35,0.00,,,0.00,WUHU21623XXSP,2013-10-31 21:02:00,
2013-10-31 14:07:00,60.1,31.4,30.09,WNW,292,2.2,4.3,34,0.00,,,0.00,WUHU21623XXSP,2013-10-31 21:07:00,
2013-10-31 14:14:00,60.4,31.7,30.09,WNW,292,3.6,3.6,34,0.00,,,0.00,WUHU21623XXSP,2013-10-31 21:14:00,
2013-10-31 14:19:00,60.6,31.1,30.09,NW,315,5.4,5.4,33,0.00,,,0.00,WUHU21623XXSP,2013-10-31 21:19:00,
2013-10-31 14:24:00,60.6,31.8,30.09,WNW,292,3.1,5.4,34,0.00,,,0.00,WUHU21623XXSP,2013-10-31 21:24:00,
2013-10-31 14:29:00,61.0,31.4,30.09,NNW,337,4.7,4.7,33,0.00,,,0.00,WUHU21623XXSP,2013-10-31 21:29:00,
2013-10-31 14:37:00,61.2,31.6,30.09,WNW,292,8.5,8.5,33,0.00,,,0.00,WUHU21623XXSP,2013-10-31 21:37:00,
2013-10-31 14:42:00,61.3,31.8,30.08,West,270,4.5,8.5,33,0.00,,,0.00,WUHU21623XXSP,2013-10-31 21:42:00,
2013-10-31 14:47:00,61.3,31.0,30.08,WNW,292,7.6,7.6,32,0.00,,,0.00,WUHU21623XXSP,2013-10-31 21:47:00,
2013-10-31 14:52:00,60.8,30.7,30.08,West,270,3.1,7.6,32,0.00,,,0.00,WUHU21623XXSP,2013-10-31 21:52:00,
2013-10-31 14:57:00,60.6,30.6,30.08,West,270,3.1,4.0,31,0.00,,,0.00,WUHU21623XXSP,2013-10-31 21:57:00,
2013-10-31 15:02:00,60.3,30.8,30.08,WNW,292,3.6,5.8,33,0.00,,,0.00,WUHU21623XXSP,2013-10-31 22:02:00,
2013-10-31 15:07:00,60.1,30.7,30.08,NNW,337,4.3,5.8,33,0.00,,,0.00,WUHU21623XXSP,2013-10-31 22:07:00,
2013-10-31 15:13:00,59.7,31.1,30.08,North,0,2.5,4.3,34,0.00,,,0.00,WUHU21623XXSP,2013-10-31 22:13:00,
2013-10-31 15:18:00,59.5,31.6,30.07,West,270,3.6,3.6,35,0.00,,,0.00,WUHU21623XXSP,2013-10-31 22:18:00,
2013-10-31 15:24:00,59.4,31.5,30.07,NW,315,5.1,5.1,35,0.00,,,0.00,WUHU21623XXSP,2013-10-31 22:24:00,
2013-10-31 15:31:00,59.2,32.0,30.08,North,0,3.1,5.1,36,0.00,,,0.00,WUHU21623XXSP,2013-10-31 22:31:00,
2013-10-31 15:36:00,59.4,32.2,30.07,North,0,2.0,3.1,36,0.00,,,0.00,WUHU21623XXSP,2013-10-31 22:36:00,
2013-10-31 15:41:00,59.2,32.0,30.07,NNW,337,2.2,2.2,36,0.00,,,0.00,WUHU21623XXSP,2013-10-31 22:41:00,
2013-10-31 15:46:00,59.2,32.0,30.08,NW,315,4.3,4.3,36,0.00,,,0.00,WUHU21623XXSP,2013-10-31 22:46:00,
2013-10-31 15:51:00,58.8,32.6,30.07,WNW,292,4.0,9.4,37,0.00,,,0.00,WUHU21623XXSP,2013-10-31 22:51:00,
2013-10-31 15:58:00,58.8,32.4,30.07,NNW,337,2.7,4.0,37,0.00,,,0.00,WUHU21623XXSP,2013-10-31 22:58:00,
2013-10-31 16:03:00,58.8,33.1,30.07,NW,315,6.0,6.0,38,0.00,,,0.00,WUHU21623XXSP,2013-10-31 23:03:00,
2013-10-31 16:08:00,58.8,33.1,30.07,NNW,337,4.7,6.0,38,0.00,,,0.00,WUHU21623XXSP,2013-10-31 23:08:00,
2013-10-31 16:14:00,58.6,33.0,30.07,WNW,292,6.3,6.3,38,0.00,,,0.00,WUHU21623XXSP,2013-10-31 23:14:00,
2013-10-31 16:22:00,58.3,33.4,30.07,WNW,292,5.1,5.1,39,0.00,,,0.00,WUHU21623XXSP,2013-10-31 23:22:00,
2013-10-31 16:28:00,58.3,33.4,30.06,North,0,5.1,5.1,39,0.00,,,0.00,WUHU21623XXSP,2013-10-31 23:28:00,
2013-10-31 16:33:00,58.1,33.2,30.07,WNW,292,3.8,5.1,39,0.00,,,0.00,WUHU21623XXSP,2013-10-31 23:33:00,
2013-10-31 16:38:00,57.9,33.0,30.06,WNW,292,4.5,4.5,39,0.00,,,0.00,WUHU21623XXSP,2013-10-31 23:38:00,
2013-10-31 16:43:00,57.7,32.9,30.06,WNW,292,8.1,8.1,39,0.00,,,0.00,WUHU21623XXSP,2013-10-31 23:43:00,
2013-10-31 16:48:00,57.7,33.6,30.06,WNW,292,3.6,8.1,40,0.00,,,0.00,WUHU21623XXSP,2013-10-31 23:48:00,
2013-10-31 16:53:00,57.4,33.2,30.06,WNW,292,3.1,3.6,40,0.00,,,0.00,WUHU21623XXSP,2013-10-31 23:53:00,
2013-10-31 16:58:00,57.4,33.2,30.07,WNW,292,3.6,3.6,40,0.00,,,0.00,WUHU21623XXSP,2013-10-31 23:58:00,
2013-10-31 17:05:00,57.4,33.2,30.06,NW,315,4.7,4.7,40,0.00,,,0.00,WUHU21623XXSP,2013-11-01 00:05:00,
2013-10-31 17:10:00,57.0,33.5,30.06,WNW,292,5.4,5.4,41,0.00,,,0.00,WUHU21623XXSP,2013-11-01 00:10:00,
2013-10-31 17:15:00,57.0,33.5,30.06,WNW,292,1.8,5.4,41,0.00,,,0.00,WUHU21623XXSP,2013-11-01 00:15:00,
2013-10-31 17:20:00,56.8,33.3,30.06,WNW,292,1.8,5.6,41,0.00,,,0.00,WUHU21623XXSP,2013-11-01 00:20:00,
2013-10-31 17:25:00,56.5,33.0,30.06,WNW,292,3.1,5.6,41,0.00,,,0.00,WUHU21623XXSP,2013-11-01 00:25:00,
2013-10-31 17:33:00,56.1,33.2,30.06,West,270,3.1,3.1,42,0.00,,,0.00,WUHU21623XXSP,2013-11-01 00:33:00,
2013-10-31 17:38:00,55.9,33.1,30.06,West,270,2.9,3.1,42,0.00,,,0.00,WUHU21623XXSP,2013-11-01 00:38:00,
2013-10-31 17:43:00,55.6,33.3,30.06,NW,315,3.1,3.1,43,0.00,,,0.00,WUHU21623XXSP,2013-11-01 00:43:00,
2013-10-31 17:48:00,55.2,33.0,30.06,WNW,292,3.8,3.8,43,0.00,,,0.00,WUHU21623XXSP,2013-11-01 00:48:00,
2013-10-31 17:58:00,54.3,32.7,30.06,WNW,292,1.1,1.1,44,0.00,,,0.00,WUHU21623XXSP,2013-11-01 00:58:00,
2013-10-31 18:03:00,54.0,32.4,30.06,WNW,292,2.7,2.7,44,0.00,,,0.00,WUHU21623XXSP,2013-11-01 01:03:00,
2013-10-31 18:08:00,53.4,32.2,30.06,NW,315,1.3,2.7,44,0.00,,,0.00,WUHU21623XXSP,2013-11-01 01:08:00,
2013-10-31 18:13:00,53.1,32.1,30.06,WNW,292,3.8,3.8,46,0.00,,,0.00,WUHU21623XXSP,2013-11-01 01:13:00,
2013-10-31 18:18:00,52.5,32.2,30.06,NW,315,4.5,4.5,46,0.00,,,0.00,WUHU21623XXSP,2013-11-01 01:18:00,
2013-10-31 18:24:00,51.8,32.1,30.07,NNW,337,2.5,4.5,47,0.00,,,0.00,WUHU21623XXSP,2013-11-01 01:24:00,
2013-10-31 18:30:00,51.4,31.8,30.07,NW,315,3.8,3.8,47,0.00,,,0.00,WUHU21623XXSP,2013-11-01 01:30:00,
2013-10-31 18:37:00,50.7,31.7,30.07,NW,315,4.7,4.7,48,0.00,,,0.00,WUHU21623XXSP,2013-11-01 01:37:00,
2013-10-31 18:42:00,50.5,32.1,30.07,WNW,292,3.8,4.7,49,0.00,,,0.00,WUHU21623XXSP,2013-11-01 01:42:00,
2013-10-31 18:47:00,50.2,31.8,30.08,WNW,292,4.3,4.3,49,0.00,,,0.00,WUHU21623XXSP,2013-11-01 01:47:00,
2013-10-31 18:52:00,49.6,31.3,30.08,WNW,292,2.5,4.3,49,0.00,,,0.00,WUHU21623XXSP,2013-11-01 01:52:00,
2013-10-31 18:57:00,49.5,31.1,30.08,West,270,1.8,2.5,49,0.00,,,0.00,WUHU21623XXSP,2013-11-01 01:57:00,
2013-10-31 19:05:00,48.9,31.1,30.08,NNW,337,1.6,1.8,50,0.00,,,0.00,WUHU21623XXSP,2013-11-01 02:05:00,
2013-10-31 19:10:00,48.7,30.4,30.08,NW,315,0.9,1.6,50,0.00,,,0.00,WUHU21623XXSP,2013-11-01 02:10:00,
2013-10-31 19:15:00,48.6,30.7,30.08,West,270,0.0,0.9,50,0.00,,,0.00,WUHU21623XXSP,2013-11-01 02:15:00,
2013-10-31 19:20:00,48.2,30.4,30.09,NW,315,2.9,2.9,50,0.00,,,0.00,WUHU21623XXSP,2013-11-01 02:20:00,
2013-10-31 19:25:00,48.0,30.2,30.09,NW,315,0.0,2.9,50,0.00,,,0.00,WUHU21623XXSP,2013-11-01 02:25:00,
2013-10-31 19:30:00,47.7,30.3,30.09,WNW,292,0.0,0.0,51,0.00,,,0.00,WUHU21623XXSP,2013-11-01 02:30:00,
2013-10-31 19:35:00,47.5,30.2,30.09,WNW,292,0.0,0.0,51,0.00,,,0.00,WUHU21623XXSP,2013-11-01 02:35:00,
2013-10-31 19:40:00,47.1,29.9,30.09,NW,315,0.0,0.0,51,0.00,,,0.00,WUHU21623XXSP,2013-11-01 02:40:00,
2013-10-31 19:45:00,46.9,29.7,30.09,NE,45,0.0,0.0,51,0.00,,,0.00,WUHU21623XXSP,2013-11-01 02:45:00,
2013-10-31 19:50:00,46.8,29.5,30.09,East,90,0.0,0.0,51,0.00,,,0.00,WUHU21623XXSP,2013-11-01 02:50:00,
2013-10-31 19:55:00,46.6,29.4,30.09,ENE,67,0.0,0.0,51,0.00,,,0.00,WUHU21623XXSP,2013-11-01 02:55:00,
2013-10-31 20:00:00,46.2,29.0,30.10,NE,45,0.0,0.0,51,0.00,,,0.00,WUHU21623XXSP,2013-11-01 03:00:00,
2013-10-31 20:05:00,46.0,29.3,30.10,North,0,0.0,0.0,52,0.00,,,0.00,WUHU21623XXSP,2013-11-01 03:05:00,
2013-10-31 20:10:00,45.7,29.0,30.10,North,0,0.0,0.0,52,0.00,,,0.00,WUHU21623XXSP,2013-11-01 03:10:00,
2013-10-31 20:24:00,44.8,28.7,30.10,ESE,112,0.0,0.0,53,0.00,,,0.00,WUHU21623XXSP,2013-11-01 03:24:00,
2013-10-31 20:29:00,44.4,28.3,30.10,ESE,112,0.0,0.0,53,0.00,,,0.00,WUHU21623XXSP,2013-11-01 03:29:00,
2013-10-31 20:34:00,44.1,28.0,30.10,ESE,112,0.0,0.0,53,0.00,,,0.00,WUHU21623XXSP,2013-11-01 03:34:00,
2013-10-31 20:39:00,43.5,27.5,30.11,SE,135,0.0,0.0,53,0.00,,,0.00,WUHU21623XXSP,2013-11-01 03:39:00,
2013-10-31 20:44:00,43.3,27.3,30.11,ESE,112,0.0,0.0,53,0.00,,,0.00,WUHU21623XXSP,2013-11-01 03:44:00,
2013-10-31 20:56:00,42.4,26.9,30.11,East,90,0.0,0.0,54,0.00,,,0.00,WUHU21623XXSP,2013-11-01 03:56:00,
2013-10-31 21:02:00,42.1,26.5,30.11,ESE,112,0.0,0.0,54,0.00,,,0.00,WUHU21623XXSP,2013-11-01 04:02:00,
2013-10-31 21:03:00,42.1,26.5,30.11,ESE,112,0.0,0.0,54,0.00,,,0.00,WUHU21623XXSP,2013-11-01 04:03:00,
2013-10-31 21:04:00,42.1,26.5,30.11,ESE,112,0.0,0.0,54,0.00,,,0.00,WUHU21623XXSP,2013-11-01 04:04:00,
2013-10-31 21:09:00,41.5,26.5,30.12,ENE,67,0.0,0.0,55,0.00,,,0.00,WUHU21623XXSP,2013-11-01 04:09:00,
2013-10-31 21:14:00,41.2,26.1,30.12,NE,45,0.0,0.0,55,0.00,,,0.00,WUHU21623XXSP,2013-11-01 04:14:00,
2013-10-31 21:20:00,40.8,26.2,30.12,SSE,157,0.0,0.0,56,0.00,,,0.00,WUHU21623XXSP,2013-11-01 04:20:00,
2013-10-31 21:25:00,40.5,25.9,30.12,SE,135,0.0,0.0,56,0.00,,,0.00,WUHU21623XXSP,2013-11-01 04:25:00,
2013-10-31 21:30:00,40.1,25.6,30.12,ESE,112,0.0,0.0,56,0.00,,,0.00,WUHU21623XXSP,2013-11-01 04:30:00,
2013-10-31 21:35:00,39.6,25.2,30.13,ESE,112,0.0,0.0,56,0.00,,,0.00,WUHU21623XXSP,2013-11-01 04:35:00,
2013-10-31 21:43:00,39.0,24.5,30.13,ENE,67,0.0,0.0,56,0.00,,,0.00,WUHU21623XXSP,2013-11-01 04:43:00,
2013-10-31 21:48:00,39.0,24.5,30.13,NE,45,0.0,0.0,57,0.00,,,0.00,WUHU21623XXSP,2013-11-01 04:48:00,
2013-10-31 21:53:00,38.8,24.8,30.13,SE,135,0.0,0.0,57,0.00,,,0.00,WUHU21623XXSP,2013-11-01 04:53:00,
2013-10-31 22:00:00,38.3,24.7,30.14,SE,135,0.0,0.0,58,0.00,,,0.00,WUHU21623XXSP,2013-11-01 05:00:00,
2013-10-31 22:05:00,37.9,24.4,30.14,ESE,112,0.0,0.0,58,0.00,,,0.00,WUHU21623XXSP,2013-11-01 05:05:00,
2013-10-31 22:10:00,37.8,24.4,30.14,ESE,112,0.0,0.0,58,0.00,,,0.00,WUHU21623XXSP,2013-11-01 05:10:00,
2013-10-31 22:15:00,37.6,24.1,30.14,SSE,157,0.0,0.0,58,0.00,,,0.00,WUHU21623XXSP,2013-11-01 05:15:00,
2013-10-31 22:22:00,37.2,24.2,30.14,East,90,0.0,0.0,59,0.00,,,0.00,WUHU21623XXSP,2013-11-01 05:22:00,
2013-10-31 22:34:00,36.5,23.6,30.14,NE,45,0.0,0.0,60,0.00,,,0.00,WUHU21623XXSP,2013-11-01 05:34:00,
2013-10-31 22:40:00,36.3,23.8,30.15,NE,45,0.0,0.0,60,0.00,,,0.00,WUHU21623XXSP,2013-11-01 05:40:00,
2013-10-31 22:45:00,36.3,23.8,30.15,East,90,0.0,0.0,60,0.00,,,0.00,WUHU21623XXSP,2013-11-01 05:45:00,
2013-10-31 22:50:00,36.0,23.9,30.15,ESE,112,0.0,0.0,61,0.00,,,0.00,WUHU21623XXSP,2013-11-01 05:50:00,
2013-10-31 22:55:00,35.8,23.7,30.15,SSE,157,0.0,0.0,61,0.00,,,0.00,WUHU21623XXSP,2013-11-01 05:55:00,
2013-10-31 23:00:00,35.8,23.7,30.15,East,90,0.0,0.0,61,0.00,,,0.00,WUHU21623XXSP,2013-11-01 06:00:00,
2013-10-31 23:05:00,35.4,23.4,30.15,SSE,157,0.0,0.0,61,0.00,,,0.00,WUHU21623XXSP,2013-11-01 06:05:00,
2013-10-31 23:11:00,35.2,23.2,30.14,ESE,112,0.0,0.0,61,0.00,,,0.00,WUHU21623XXSP,2013-11-01 06:11:00,
2013-10-31 23:16:00,34.9,23.4,30.15,SE,135,0.0,0.0,62,0.00,,,0.00,WUHU21623XXSP,2013-11-01 06:16:00,
2013-10-31 23:21:00,34.9,23.2,30.15,SSE,157,0.0,0.0,62,0.00,,,0.00,WUHU21623XXSP,2013-11-01 06:21:00,
2013-10-31 23:26:00,34.5,23.2,30.15,SE,135,0.0,0.0,63,0.00,,,0.00,WUHU21623XXSP,2013-11-01 06:26:00,
2013-10-31 23:31:00,34.3,23.0,30.15,SSE,157,0.0,0.0,63,0.00,,,0.00,WUHU21623XXSP,2013-11-01 06:31:00,
2013-10-31 23:45:00,34.0,22.6,30.14,South,180,0.0,0.0,63,0.00,,,0.00,WUHU21623XXSP,2013-11-01 06:45:00,
2013-10-31 23:54:00,33.6,22.3,30.15,South,180,0.0,0.0,63,0.00,,,0.00,WUHU21623XXSP,2013-11-01 06:54:00,
2013-10-31 23:59:00,33.6,22.3,30.14,South,180,0.0,0.0,63,0.00,,,0.00,WUHU21623XXSP,2013-11-01 06:59:00,